Time;durP1;ratioP1;P1;durP2;ratioP2;P2;SDS_P1;SDS_P2;PMS_P1;PMS_P2;Temp;Humidity;BMP_temperature;BMP_pressure;BME280_temperature;BME280_humidity;BME280_pressure;Samples;Min_cycle;Max_cycle;Signal;HPM_P1;HPM_P2
2021/01/30 00:00:23;;;;;;;8.13;1.70;;;7.30;99.90;;;;;;4976216;28;20054;-67
2021/01/30 00:02:50;;;;;;;3.55;1.13;;;7.30;99.90;;;;;;4975778;28;20050;-67
2021/01/30 00:05:16;;;;;;;5.55;1.20;;;7.30;99.90;;;;;;4973810;28;20051;-68
2021/01/30 00:07:43;;;;;;;6.97;1.50;;;7.30;99.90;;;;;;4974174;28;20050;-67
2021/01/30 00:10:10;;;;;;;;;;;7.40;99.90;;;;;;4975396;28;20105;-67
2021/01/30 00:12:36;;;;;;;3.22;1.20;;;7.30;99.90;;;;;;4979527;28;19925;-67
2021/01/30 00:15:03;;;;;;;;;;;7.30;99.90;;;;;;4986800;28;20327;-67
2021/01/30 00:17:31;;;;;;;5.40;1.60;;;7.30;99.90;;;;;;4986630;28;20392;-67
2021/01/30 00:19:57;;;;;;;5.20;1.30;;;7.30;99.90;;;;;;4986454;28;20285;-67
2021/01/30 00:22:25;;;;;;;3.45;1.50;;;7.30;99.90;;;;;;4986015;28;20101;-67
2021/01/30 00:24:52;;;;;;;10.70;2.75;;;7.30;99.90;;;;;;4986951;28;20058;-67
2021/01/30 00:27:21;;;;;;;3.17;0.98;;;7.40;99.90;;;;;;4982546;28;20393;-67
2021/01/30 00:29:48;;;;;;;9.60;1.30;;;7.40;99.90;;;;;;4997570;28;20046;-67
2021/01/30 00:32:17;;;;;;;4.35;1.83;;;7.40;99.90;;;;;;4986174;28;20065;-67
2021/01/30 00:34:45;;;;;;;5.97;1.00;;;7.40;99.90;;;;;;4982272;28;20046;-68
2021/01/30 00:37:14;;;;;;;3.13;1.17;;;7.40;99.90;;;;;;4970752;28;20071;-68
2021/01/30 00:39:41;;;;;;;2.22;0.75;;;7.40;99.90;;;;;;4961163;28;20074;-67
2021/01/30 00:42:09;;;;;;;1.20;0.90;;;7.40;99.90;;;;;;4967882;28;20051;-67
2021/01/30 00:44:36;;;;;;;4.60;1.00;;;7.40;99.90;;;;;;4967864;28;20093;-68
2021/01/30 00:47:04;;;;;;;4.28;0.82;;;7.40;99.90;;;;;;4967671;28;20509;-68
2021/01/30 00:49:31;;;;;;;2.63;0.90;;;7.50;99.90;;;;;;4966185;28;20046;-67
2021/01/30 00:51:58;;;;;;;2.92;0.90;;;7.40;99.90;;;;;;5000571;28;20096;-68
2021/01/30 00:54:25;;;;;;;2.42;1.17;;;7.40;99.90;;;;;;4986073;28;20503;-68
2021/01/30 00:56:53;;;;;;;6.38;1.50;;;7.40;99.90;;;;;;4987328;28;20054;-67
2021/01/30 00:59:20;;;;;;;1.92;0.98;;;7.40;99.90;;;;;;4987500;28;20050;-67
2021/01/30 01:01:47;;;;;;;5.30;0.90;;;7.40;99.90;;;;;;4987101;28;20076;-67
2021/01/30 01:04:14;;;;;;;3.90;1.00;;;7.40;99.90;;;;;;4986745;28;20492;-68
2021/01/30 01:06:40;;;;;;;4.63;0.90;;;7.30;99.90;;;;;;4983210;28;20077;-67
2021/01/30 01:09:08;;;;;;;4.07;1.27;;;7.30;99.90;;;;;;4986888;28;20121;-67
2021/01/30 01:11:37;;;;;;;2.58;0.98;;;7.40;99.90;;;;;;4989426;28;20116;-67
2021/01/30 01:14:04;;;;;;;3.92;1.17;;;7.40;99.90;;;;;;4990811;28;20058;-67
2021/01/30 01:16:31;;;;;;;3.95;1.20;;;7.30;99.90;;;;;;4995005;28;20492;-68
2021/01/30 01:18:58;;;;;;;2.42;1.05;;;7.40;99.90;;;;;;5010444;28;20058;-68
2021/01/30 01:21:25;;;;;;;6.10;1.38;;;7.30;99.90;;;;;;5010354;28;20061;-68
2021/01/30 01:23:52;;;;;;;3.50;1.08;;;7.30;99.90;;;;;;4984127;28;20524;-68
2021/01/30 01:26:20;;;;;;;2.75;1.23;;;7.20;99.90;;;;;;5007161;28;20424;-67
2021/01/30 01:28:49;;;;;;;5.25;1.08;;;7.30;99.90;;;;;;4984877;28;20057;-67
2021/01/30 01:31:18;;;;;;;7.00;1.30;;;7.30;99.90;;;;;;4987329;28;20050;-67
2021/01/30 01:33:44;;;;;;;4.63;1.05;;;7.30;99.90;;;;;;4987106;28;20042;-67
2021/01/30 01:36:14;;;;;;;4.28;1.45;;;7.20;99.90;;;;;;4987055;28;20093;-67
2021/01/30 01:38:41;;;;;;;4.97;1.05;;;7.30;99.90;;;;;;4990725;28;20054;-67
2021/01/30 01:41:08;;;;;;;2.90;1.00;;;7.30;99.90;;;;;;4994512;28;20738;-67
2021/01/30 01:43:36;;;;;;;4.38;1.20;;;7.20;99.90;;;;;;4998772;28;20046;-68
2021/01/30 01:46:17;;;;;;;6.05;1.30;;;7.20;99.90;;;;;;4994560;28;20551;-68
2021/01/30 01:48:50;;;;;;;5.25;1.50;;;7.20;99.90;;;;;;4987294;28;20058;-68
2021/01/30 01:51:24;;;;;;;6.35;1.20;;;7.20;99.90;;;;;;4975602;28;20058;-67
2021/01/30 01:53:51;;;;;;;5.63;1.42;;;7.20;99.90;;;;;;4968543;28;20471;-69
2021/01/30 01:56:21;;;;;;;5.88;1.73;;;7.20;99.90;;;;;;4986506;28;20058;-68
2021/01/30 01:58:52;;;;;;;3.13;1.17;;;7.20;99.90;;;;;;4984698;28;20089;-68
2021/01/30 02:01:20;;;;;;;4.75;1.15;;;7.20;99.90;;;;;;4971535;28;20101;-68
2021/01/30 02:03:53;;;;;;;3.83;1.23;;;7.20;99.90;;;;;;4969354;28;20505;-68
2021/01/30 02:06:20;;;;;;;5.47;1.30;;;7.20;99.90;;;;;;4978479;28;20050;-67
2021/01/30 02:08:47;;;;;;;5.38;1.40;;;7.20;99.90;;;;;;4975210;28;20093;-67
2021/01/30 02:11:14;;;;;;;5.82;1.25;;;7.10;99.90;;;;;;4975743;28;20124;-67
2021/01/30 02:13:45;;;;;;;4.82;1.55;;;7.10;99.90;;;;;;4969988;28;20046;-68
2021/01/30 02:16:24;;;;;;;4.38;1.30;;;7.00;99.90;;;;;;4969001;28;20524;-67
2021/01/30 02:18:57;;;;;;;6.85;1.23;;;7.10;99.90;;;;;;4969014;28;20062;-67
2021/01/30 02:22:09;;;;;;;5.70;1.50;;;7.00;99.90;;;;;;4967317;28;20062;-67
2021/01/30 02:25:12;;;;;;;4.15;1.48;;;7.00;99.90;;;;;;4905783;29;20052;-67
2021/01/30 02:27:55;;;;;;;2.70;1.13;;;6.90;99.90;;;;;;4908110;29;20052;-67
2021/01/30 02:30:45;;;;;;;5.68;1.33;;;6.90;99.90;;;;;;4960837;28;20065;-67
2021/01/30 02:33:41;;;;;;;4.47;1.10;;;6.80;99.90;;;;;;4965316;28;20059;-67
2021/01/30 02:36:20;;;;;;;6.80;1.60;;;6.80;99.90;;;;;;4982178;28;20054;-67
2021/01/30 02:38:53;;;;;;;3.33;1.25;;;6.90;99.90;;;;;;4972223;28;20715;-67
2021/01/30 02:41:25;;;;;;;6.50;1.38;;;6.80;99.90;;;;;;4978524;28;20059;-67
2021/01/30 02:43:55;;;;;;;8.18;1.83;;;6.80;99.90;;;;;;4974796;28;20054;-67
2021/01/30 02:46:26;;;;;;;6.45;1.50;;;6.80;99.90;;;;;;4977077;28;20047;-67
2021/01/30 02:48:56;;;;;;;5.65;1.50;;;6.80;99.90;;;;;;4978154;28;20050;-67
2021/01/30 02:51:36;;;;;;;9.00;1.83;;;6.80;99.90;;;;;;4987229;28;20077;-67
2021/01/30 02:54:06;;;;;;;2.95;1.10;;;6.90;99.90;;;;;;5004100;28;20050;-67
2021/01/30 02:56:33;;;;;;;4.78;1.38;;;7.00;99.90;;;;;;5005519;28;20141;-66
2021/01/30 02:59:04;;;;;;;4.20;1.52;;;7.00;99.90;;;;;;5005817;28;20054;-67
2021/01/30 03:01:34;;;;;;;2.03;1.17;;;6.90;99.90;;;;;;5005423;28;20053;-67
2021/01/30 03:04:04;;;;;;;8.18;1.85;;;6.90;99.90;;;;;;5003756;28;20060;-65
2021/01/30 03:06:37;;;;;;;4.47;1.30;;;6.90;99.90;;;;;;5004926;28;20053;-67
2021/01/30 03:09:10;;;;;;;6.18;1.55;;;6.90;99.90;;;;;;5004928;28;20133;-67
2021/01/30 03:11:43;;;;;;;5.28;1.25;;;6.90;99.90;;;;;;4999652;28;20050;-67
2021/01/30 03:14:20;;;;;;;5.15;1.45;;;7.00;99.90;;;;;;4965142;28;20047;-67
2021/01/30 03:16:48;;;;;;;8.77;1.58;;;7.00;99.90;;;;;;4976546;28;20047;-67
2021/01/30 03:19:21;;;;;;;5.13;1.40;;;7.00;99.90;;;;;;4975654;28;20066;-67
2021/01/30 03:21:53;;;;;;;5.47;1.20;;;7.10;99.90;;;;;;4965929;28;20049;-67
2021/01/30 03:24:20;;;;;;;4.40;1.13;;;7.10;99.90;;;;;;4972276;28;20050;-67
2021/01/30 03:26:47;;;;;;;6.93;1.85;;;7.10;99.90;;;;;;4974703;28;20117;-66
2021/01/30 03:29:17;;;;;;;6.13;1.45;;;7.00;99.90;;;;;;4974259;28;20065;-67
2021/01/30 03:31:44;;;;;;;4.05;1.15;;;7.10;99.90;;;;;;4976024;28;20066;-67
2021/01/30 03:34:12;;;;;;;3.10;1.17;;;7.10;99.90;;;;;;4973431;28;20051;-67
2021/01/30 03:36:39;;;;;;;5.25;1.30;;;7.10;99.90;;;;;;4969192;28;20073;-67
2021/01/30 03:39:08;;;;;;;7.20;1.65;;;7.00;99.90;;;;;;4966334;28;20054;-67
2021/01/30 03:41:34;;;;;;;3.70;1.05;;;7.10;99.90;;;;;;4964872;28;20058;-67
2021/01/30 03:44:01;;;;;;;7.88;1.65;;;7.10;99.90;;;;;;4970692;28;20382;-67
2021/01/30 03:46:28;;;;;;;3.97;1.27;;;7.10;99.90;;;;;;4976662;28;20519;-67
2021/01/30 03:48:54;;;;;;;4.50;1.30;;;7.10;99.90;;;;;;4979039;28;20050;-67
2021/01/30 03:51:21;;;;;;;2.55;1.00;;;7.10;99.90;;;;;;4976912;28;20237;-67
2021/01/30 03:53:47;;;;;;;4.18;1.60;;;7.10;99.90;;;;;;4981643;28;20092;-67
2021/01/30 03:56:15;;;;;;;5.30;2.38;;;7.10;99.90;;;;;;4985118;28;20054;-67
2021/01/30 03:58:43;;;;;;;5.50;1.40;;;7.20;99.90;;;;;;4984721;28;20054;-67
2021/01/30 04:01:10;;;;;;;4.97;0.90;;;7.20;99.90;;;;;;4984165;28;20141;-67
2021/01/30 04:03:37;;;;;;;5.10;1.48;;;7.20;99.90;;;;;;4983926;28;20054;-67
2021/01/30 04:06:03;;;;;;;2.38;1.02;;;7.20;99.90;;;;;;4985063;28;20405;-67
2021/01/30 04:08:30;;;;;;;4.60;1.20;;;7.20;99.90;;;;;;4985207;28;20204;-67
2021/01/30 04:10:56;;;;;;;5.18;1.40;;;7.20;99.90;;;;;;4984532;28;20050;-67
2021/01/30 04:13:24;;;;;;;4.15;1.05;;;7.20;99.90;;;;;;4983121;28;20054;-67
2021/01/30 04:15:50;;;;;;;7.35;1.40;;;7.20;99.90;;;;;;4977873;28;20712;-67
2021/01/30 04:18:17;;;;;;;3.72;1.25;;;7.20;99.90;;;;;;4977926;28;20050;-67
2021/01/30 04:20:43;;;;;;;2.50;0.90;;;7.20;99.90;;;;;;4973867;28;20516;-67
2021/01/30 04:23:11;;;;;;;5.35;1.40;;;7.20;99.90;;;;;;4971657;28;20081;-67
2021/01/30 04:25:38;;;;;;;3.35;1.63;;;7.10;99.90;;;;;;4973508;28;20053;-67
2021/01/30 04:28:05;;;;;;;4.47;1.20;;;7.10;99.90;;;;;;4975013;28;20398;-67
2021/01/30 04:30:33;;;;;;;6.85;1.13;;;7.10;99.90;;;;;;4963563;28;20047;-67
2021/01/30 04:33:00;;;;;;;5.55;1.35;;;7.10;99.90;;;;;;4970611;28;20496;-67
2021/01/30 04:35:30;;;;;;;4.18;1.10;;;7.10;99.90;;;;;;4975533;28;20058;-67
2021/01/30 04:37:57;;;;;;;3.47;0.90;;;7.10;99.90;;;;;;4972800;28;20062;-67
2021/01/30 04:40:29;;;;;;;4.20;1.25;;;7.10;99.90;;;;;;4973285;28;20055;-67
2021/01/30 04:43:00;;;;;;;5.53;1.17;;;7.10;99.90;;;;;;4963332;28;20556;-67
2021/01/30 04:45:48;;;;;;;7.70;2.17;;;7.10;99.90;;;;;;4973230;28;20050;-67
2021/01/30 04:48:26;;;;;;;5.60;1.77;;;7.10;99.90;;;;;;4977584;28;20508;-67
2021/01/30 04:51:00;;;;;;;5.68;1.30;;;7.10;99.90;;;;;;4964244;28;20043;-67
2021/01/30 04:53:55;;;;;;;7.47;1.67;;;7.10;99.90;;;;;;4971398;28;20113;-67
2021/01/30 04:56:33;;;;;;;5.60;1.83;;;7.10;99.90;;;;;;4975578;28;20055;-67
2021/01/30 04:59:11;;;;;;;5.78;1.38;;;7.10;99.90;;;;;;4964435;28;20121;-67
2021/01/30 05:01:46;;;;;;;6.28;1.40;;;7.00;99.90;;;;;;4963931;28;20080;-67
2021/01/30 05:04:19;;;;;;;6.65;1.10;;;7.00;99.90;;;;;;4971347;28;20062;-67
2021/01/30 05:07:05;;;;;;;7.80;1.20;;;7.00;99.90;;;;;;4973446;28;20043;-67
2021/01/30 05:09:36;;;;;;;5.05;1.10;;;7.10;99.90;;;;;;4973094;28;20043;-67
2021/01/30 05:12:10;;;;;;;3.40;0.93;;;7.00;99.90;;;;;;4974915;28;20042;-67
2021/01/30 05:14:44;;;;;;;6.35;1.33;;;7.10;99.90;;;;;;4966165;28;20047;-67
2021/01/30 05:17:18;;;;;;;3.95;1.75;;;7.10;99.90;;;;;;4982583;28;20051;-67
2021/01/30 05:19:50;;;;;;;3.85;1.52;;;7.00;99.90;;;;;;4983942;28;20074;-67
2021/01/30 05:22:21;;;;;;;5.95;1.10;;;6.90;99.90;;;;;;4990832;28;20077;-67
2021/01/30 05:24:48;;;;;;;2.25;1.00;;;6.80;99.90;;;;;;4977197;28;20062;-67
2021/01/30 05:27:30;;;;;;;8.15;2.03;;;6.80;99.90;;;;;;4973946;28;20124;-67
2021/01/30 05:30:06;;;;;;;4.47;1.00;;;6.80;99.90;;;;;;4964003;28;20043;-67
2021/01/30 05:32:43;;;;;;;3.75;1.15;;;6.70;99.90;;;;;;4962868;28;20097;-68
2021/01/30 05:35:16;;;;;;;3.55;1.00;;;6.70;99.90;;;;;;4969632;28;20042;-67
2021/01/30 05:37:48;;;;;;;5.32;1.13;;;6.80;99.90;;;;;;4976411;28;20065;-67
2021/01/30 05:40:26;;;;;;;7.40;1.45;;;6.80;99.90;;;;;;4975262;28;20050;-67
2021/01/30 05:43:04;;;;;;;5.68;1.10;;;6.80;99.90;;;;;;4962413;28;20406;-67
2021/01/30 05:45:40;;;;;;;2.63;1.38;;;6.70;99.90;;;;;;4973258;28;20043;-67
2021/01/30 05:48:12;;;;;;;2.53;0.80;;;6.80;99.90;;;;;;4972774;28;21416;-67
2021/01/30 05:50:44;;;;;;;3.33;1.05;;;6.80;99.90;;;;;;4975104;28;20520;-67
2021/01/30 05:53:14;;;;;;;4.38;1.30;;;6.80;99.90;;;;;;4970122;28;20043;-67
2021/01/30 05:55:41;;;;;;;5.43;1.23;;;6.80;99.90;;;;;;4970713;28;20055;-67
2021/01/30 05:58:10;;;;;;;6.82;1.00;;;6.80;99.90;;;;;;4965841;28;20081;-67
2021/01/30 06:00:38;;;;;;;3.10;1.00;;;6.70;99.90;;;;;;4966720;28;20465;-67
2021/01/30 06:03:08;;;;;;;4.53;1.30;;;6.80;99.90;;;;;;4966532;28;20066;-67
2021/01/30 06:05:38;;;;;;;6.43;1.42;;;6.70;99.90;;;;;;4967384;28;20053;-67
2021/01/30 06:08:22;;;;;;;4.05;1.60;;;6.70;99.90;;;;;;4980659;28;20050;-68
2021/01/30 06:10:53;;;;;;;7.32;2.45;;;6.60;99.90;;;;;;5005562;28;20053;-67
2021/01/30 06:13:21;;;;;;;6.15;1.10;;;6.60;99.90;;;;;;5009309;28;20055;-68
2021/01/30 06:15:52;;;;;;;5.15;1.42;;;6.60;99.90;;;;;;5021684;28;20057;-70
2021/01/30 06:18:34;;;;;;;6.05;1.67;;;6.70;99.90;;;;;;5010927;28;20562;-67
2021/01/30 06:21:09;;;;;;;3.70;1.00;;;6.70;99.90;;;;;;5005030;28;20046;-67
2021/01/30 06:23:36;;;;;;;4.50;1.60;;;6.60;99.90;;;;;;5002707;28;20521;-67
2021/01/30 06:26:16;;;;;;;5.47;1.70;;;6.50;99.90;;;;;;5003952;28;20056;-67
2021/01/30 06:28:46;;;;;;;3.67;1.42;;;6.50;99.90;;;;;;5005500;28;20057;-67
2021/01/30 06:31:24;;;;;;;5.50;1.88;;;6.50;99.90;;;;;;5005561;28;20131;-67
2021/01/30 06:33:55;;;;;;;4.25;1.52;;;6.50;99.90;;;;;;5004306;28;20192;-67
2021/01/30 06:36:25;;;;;;;5.45;1.20;;;6.40;99.90;;;;;;5005991;28;20050;-67
2021/01/30 06:38:55;;;;;;;4.55;1.40;;;6.50;99.90;;;;;;4986424;28;20046;-67
2021/01/30 06:41:25;;;;;;;4.45;1.40;;;6.40;99.90;;;;;;4985295;28;20058;-67
2021/01/30 06:44:04;;;;;;;4.20;1.30;;;6.50;99.90;;;;;;4985398;28;20816;-67
2021/01/30 06:46:30;;;;;;;3.92;1.30;;;6.60;99.90;;;;;;4986276;28;20050;-67
2021/01/30 06:49:14;;;;;;;4.13;1.30;;;6.60;99.90;;;;;;4986180;28;20120;-67
2021/01/30 06:51:41;;;;;;;3.47;1.13;;;6.50;99.90;;;;;;4985296;28;20054;-67
2021/01/30 06:54:20;;;;;;;2.20;0.90;;;6.60;99.90;;;;;;4985225;28;20058;-67
2021/01/30 06:56:55;;;;;;;3.63;1.00;;;6.60;99.90;;;;;;4985286;28;20054;-67
2021/01/30 06:59:29;;;;;;;4.30;1.27;;;6.60;99.90;;;;;;4986199;28;20501;-67
2021/01/30 07:01:58;;;;;;;3.22;0.90;;;6.60;99.90;;;;;;4984676;28;20057;-67
2021/01/30 07:05:02;;;;;;;4.15;1.55;;;6.60;99.90;;;;;;4984204;28;20050;-67
2021/01/30 07:07:37;;;;;;;3.88;1.05;;;6.60;99.90;;;;;;4977129;28;20551;-67
2021/01/30 07:10:19;;;;;;;3.20;0.82;;;6.50;99.90;;;;;;4993191;28;20045;-67
2021/01/30 07:13:04;;;;;;;2.50;1.00;;;6.50;99.90;;;;;;5002717;28;20050;-67
2021/01/30 07:15:33;;;;;;;4.07;0.98;;;6.50;99.90;;;;;;5005131;28;20053;-67
2021/01/30 07:18:19;;;;;;;7.78;1.17;;;6.50;99.90;;;;;;5005294;28;20412;-67
2021/01/30 07:20:57;;;;;;;3.22;1.05;;;6.50;99.90;;;;;;5004417;28;20054;-67
2021/01/30 07:23:35;;;;;;;2.90;1.20;;;6.50;99.90;;;;;;5003841;28;20101;-68
2021/01/30 07:26:07;;;;;;;3.28;1.10;;;6.50;99.90;;;;;;5004364;28;20496;-67
2021/01/30 07:28:38;;;;;;;3.05;1.02;;;6.50;99.90;;;;;;5005229;28;20050;-67
2021/01/30 07:31:11;;;;;;;2.15;0.90;;;6.50;99.90;;;;;;5004449;28;20053;-67
2021/01/30 07:33:58;;;;;;;3.30;1.23;;;6.50;99.90;;;;;;5003309;28;20060;-67
2021/01/30 07:36:30;;;;;;;2.42;1.20;;;6.50;99.90;;;;;;5005072;28;20081;-67
2021/01/30 07:39:07;;;;;;;4.82;1.60;;;6.50;99.90;;;;;;4983391;28;20201;-67
2021/01/30 07:41:48;;;;;;;3.20;1.38;;;6.50;99.90;;;;;;4983378;28;20058;-67
2021/01/30 07:44:20;;;;;;;4.28;1.40;;;6.50;99.90;;;;;;4984132;28;20467;-67
2021/01/30 07:46:53;;;;;;;4.00;1.05;;;6.50;99.90;;;;;;4985632;28;20054;-68
2021/01/30 07:49:23;;;;;;;2.65;1.00;;;6.30;99.90;;;;;;4985749;28;20508;-68
2021/01/30 07:51:58;;;;;;;3.90;0.80;;;5.90;99.90;;;;;;4985039;28;20486;-67
2021/01/30 07:54:26;;;;;;;2.77;1.27;;;5.50;99.90;;;;;;4983449;28;20046;-67
2021/01/30 07:57:14;;;;;;;3.03;1.20;;;5.20;99.90;;;;;;4985414;28;20065;-67
2021/01/30 07:59:49;;;;;;;3.00;0.97;;;4.70;99.90;;;;;;4985676;28;20101;-67
2021/01/30 08:02:53;;;;;;;3.43;1.00;;;4.50;99.90;;;;;;4985469;28;20090;-65
2021/01/30 08:05:39;;;;;;;2.87;1.10;;;4.40;99.90;;;;;;4985607;28;20061;-65
2021/01/30 08:08:16;;;;;;;7.30;1.67;;;4.20;99.90;;;;;;4979595;28;20050;-64
2021/01/30 08:10:55;;;;;;;2.80;1.07;;;4.00;99.90;;;;;;4984215;28;20043;-67
2021/01/30 08:13:36;;;;;;;2.53;0.97;;;4.00;99.90;;;;;;4984138;28;20112;-67
2021/01/30 08:16:27;;;;;;;1.97;0.93;;;4.00;99.90;;;;;;4985441;28;20742;-67
2021/01/30 08:18:54;;;;;;;3.20;1.50;;;3.90;99.90;;;;;;4985352;28;20057;-67
2021/01/30 08:21:33;;;;;;;3.57;1.40;;;3.80;99.90;;;;;;4983595;28;20050;-67
2021/01/30 08:24:10;;;;;;;2.27;1.30;;;3.70;99.90;;;;;;4983772;28;20452;-67
2021/01/30 08:26:41;;;;;;;4.53;1.30;;;3.70;99.90;;;;;;4985688;28;20053;-68
2021/01/30 08:29:12;;;;;;;5.30;1.80;;;3.70;99.90;;;;;;4985106;28;20058;-66
2021/01/30 08:31:42;;;;;;;5.73;1.87;;;3.70;99.90;;;;;;4984931;28;20046;-69
2021/01/30 08:34:31;;;;;;;4.97;1.90;;;3.70;99.90;;;;;;4984307;28;20921;-70
2021/01/30 08:36:59;;;;;;;3.73;1.63;;;3.70;99.90;;;;;;4985346;28;20062;-68
2021/01/30 08:39:29;;;;;;;3.97;1.87;;;3.60;99.90;;;;;;4982750;28;20068;-69
2021/01/30 08:42:04;;;;;;;4.57;2.07;;;3.70;99.90;;;;;;4987129;28;20058;-69
2021/01/30 08:44:53;;;;;;;5.00;2.10;;;3.80;99.90;;;;;;4984322;28;20058;-69
2021/01/30 08:47:25;;;;;;;5.53;2.40;;;3.80;99.90;;;;;;4976555;28;20058;-70
2021/01/30 08:50:10;;;;;;;5.10;2.23;;;3.70;99.90;;;;;;4979906;28;20097;-69
2021/01/30 08:52:41;;;;;;;7.67;2.20;;;3.60;99.90;;;;;;4980930;28;20045;-69
2021/01/30 08:55:44;;;;;;;5.03;2.10;;;3.70;99.90;;;;;;4986896;28;20117;-70
2021/01/30 08:58:46;;;;;;;5.13;2.10;;;3.70;99.90;;;;;;4998731;28;20054;-69
2021/01/30 09:01:41;;;;;;;4.43;2.07;;;3.60;99.90;;;;;;4993360;28;20061;-69
2021/01/30 09:04:47;;;;;;;5.37;2.20;;;3.50;99.90;;;;;;4983531;28;20054;-69
2021/01/30 09:07:40;;;;;;;5.47;2.20;;;3.60;99.90;;;;;;4984958;28;20134;-68
2021/01/30 09:10:33;;;;;;;5.57;2.70;;;3.50;99.90;;;;;;4985254;28;20100;-68
2021/01/30 09:13:03;;;;;;;8.00;3.10;;;3.50;99.90;;;;;;4987151;28;20055;-69
2021/01/30 09:16:02;;;;;;;6.67;2.83;;;3.40;99.90;;;;;;4976948;28;20050;-73
2021/01/30 09:18:48;;;;;;;8.97;3.60;;;3.30;99.90;;;;;;4977553;28;20507;-71
2021/01/30 09:21:18;;;;;;;6.37;3.07;;;3.30;99.90;;;;;;4975281;28;20505;-68
2021/01/30 09:23:56;;;;;;;9.07;3.40;;;3.10;99.90;;;;;;4972876;28;20046;-68
2021/01/30 09:26:32;;;;;;;8.20;3.50;;;3.00;99.90;;;;;;4972640;28;20066;-67
2021/01/30 09:29:02;;;;;;;9.52;3.70;;;2.90;99.90;;;;;;4983450;28;20094;-69
2021/01/30 09:31:30;;;;;;;8.27;3.30;;;3.00;99.90;;;;;;4978196;28;20042;-70
2021/01/30 09:34:02;;;;;;;9.87;3.73;;;3.00;99.90;;;;;;4965874;28;20167;-68
2021/01/30 09:36:34;;;;;;;9.70;4.10;;;2.90;99.90;;;;;;4966760;28;20102;-69
2021/01/30 09:39:01;;;;;;;8.83;3.73;;;2.90;99.90;;;;;;4981220;28;20057;-70
2021/01/30 09:41:32;;;;;;;10.63;4.33;;;2.80;99.90;;;;;;4978620;28;20054;-71
2021/01/30 09:44:08;;;;;;;11.10;4.20;;;2.80;99.90;;;;;;4965774;28;20054;-71
2021/01/30 09:46:37;;;;;;;9.70;3.80;;;2.70;99.90;;;;;;4978519;28;20093;-70
2021/01/30 09:49:07;;;;;;;10.87;4.10;;;2.70;99.90;;;;;;4971963;28;20054;-72
2021/01/30 09:51:38;;;;;;;10.60;4.50;;;2.70;99.90;;;;;;4967134;28;20113;-72
2021/01/30 09:54:05;;;;;;;9.40;3.77;;;2.60;99.90;;;;;;4967133;28;20046;-74
2021/01/30 09:56:36;;;;;;;8.67;3.80;;;2.60;99.90;;;;;;4966754;28;20055;-72
2021/01/30 09:59:04;;;;;;;8.40;3.50;;;2.70;99.90;;;;;;4967649;28;20061;-74
2021/01/30 10:01:34;;;;;;;9.30;3.60;;;2.80;99.90;;;;;;4982758;28;20101;-69
2021/01/30 10:04:19;;;;;;;8.60;3.70;;;2.80;99.90;;;;;;4966414;28;20133;-71
2021/01/30 10:06:47;;;;;;;8.03;3.53;;;3.00;99.90;;;;;;4969900;28;20187;-68
2021/01/30 10:09:18;;;;;;;8.37;3.63;;;2.90;99.90;;;;;;4979408;28;20456;-69
2021/01/30 10:11:48;;;;;;;8.43;3.33;;;2.90;99.90;;;;;;4969573;28;20050;-70
2021/01/30 10:14:17;;;;;;;6.47;3.47;;;2.90;99.90;;;;;;4978580;28;20082;-68
2021/01/30 10:16:45;;;;;;;7.40;3.60;;;2.90;99.90;;;;;;4977957;28;20524;-68
2021/01/30 10:19:23;;;;;;;7.80;3.97;;;2.80;99.90;;;;;;4970443;28;20059;-68
2021/01/30 10:21:51;;;;;;;9.17;4.00;;;2.80;99.90;;;;;;4968570;28;20086;-68
2021/01/30 10:24:20;;;;;;;9.50;4.40;;;2.80;99.90;;;;;;4984255;28;20062;-68
2021/01/30 10:26:48;;;;;;;8.03;4.07;;;2.80;99.90;;;;;;4981625;28;20047;-68
2021/01/30 10:29:23;;;;;;;10.47;4.70;;;2.90;99.90;;;;;;4980395;28;20046;-68
2021/01/30 10:31:53;;;;;;;10.17;5.33;;;2.80;99.90;;;;;;4978482;28;20420;-68
2021/01/30 10:34:28;;;;;;;10.50;6.00;;;3.00;99.90;;;;;;4983711;28;20396;-68
2021/01/30 10:37:00;;;;;;;9.90;5.23;;;2.60;99.90;;;;;;4978366;28;20042;-68
2021/01/30 10:39:28;;;;;;;13.87;6.60;;;2.40;99.90;;;;;;4984201;28;20501;-69
2021/01/30 10:42:02;;;;;;;14.10;7.53;;;2.50;99.90;;;;;;4986193;28;20039;-69
2021/01/30 10:44:31;;;;;;;14.70;7.43;;;2.40;99.90;;;;;;4978069;28;20509;-69
2021/01/30 10:47:01;;;;;;;13.50;7.47;;;2.30;99.90;;;;;;4985614;28;20057;-69
2021/01/30 10:49:37;;;;;;;15.23;8.03;;;2.30;99.90;;;;;;4986049;28;20346;-69
2021/01/30 10:52:12;;;;;;;13.18;6.80;;;2.50;99.90;;;;;;4977523;28;20054;-69
2021/01/30 10:54:40;;;;;;;13.37;7.47;;;2.50;99.90;;;;;;4977240;28;20307;-69
2021/01/30 10:57:12;;;;;;;12.17;7.00;;;2.60;99.90;;;;;;4983282;28;20481;-69
2021/01/30 10:59:47;;;;;;;12.13;7.10;;;2.70;99.90;;;;;;4972206;28;20128;-69
2021/01/30 11:02:42;;;;;;;16.40;8.13;;;2.70;99.90;;;;;;4979627;28;20054;-67
2021/01/30 11:05:29;;;;;;;14.97;7.83;;;2.70;99.90;;;;;;4949989;28;20101;-69
2021/01/30 11:07:59;;;;;;;;;;;2.60;99.90;;;;;;4979936;28;20047;-67
2021/01/30 11:10:39;;;;;;;12.03;6.80;;;2.70;99.90;;;;;;4985068;28;19925;-68
2021/01/30 11:13:10;;;;;;;13.40;6.93;;;2.80;99.90;;;;;;4980094;28;20101;-68
2021/01/30 11:15:41;;;;;;;15.50;7.30;;;2.80;99.90;;;;;;4976958;28;20051;-68
2021/01/30 11:18:20;;;;;;;13.33;7.23;;;2.80;99.90;;;;;;4975602;28;20317;-69
2021/01/30 11:20:50;;;;;;;11.83;6.77;;;2.80;99.90;;;;;;4985004;28;20050;-69
2021/01/30 11:23:41;;;;;;;13.37;6.73;;;2.80;99.90;;;;;;4976076;28;20043;-69
2021/01/30 11:26:12;;;;;;;12.13;6.40;;;2.80;99.90;;;;;;4970963;28;20133;-69
2021/01/30 11:28:39;;;;;;;14.37;7.40;;;2.40;99.90;;;;;;4977348;28;20290;-69
2021/01/30 11:31:08;;;;;;;13.00;7.13;;;2.40;99.90;;;;;;4977206;28;20043;-70
2021/01/30 11:33:34;;;;;;;14.17;7.40;;;2.30;99.90;;;;;;4975373;28;20042;-69
2021/01/30 11:36:04;;;;;;;14.13;7.80;;;2.40;99.90;;;;;;4978748;28;20493;-69
2021/01/30 11:38:30;;;;;;;17.53;8.53;;;2.40;99.90;;;;;;4989554;28;20056;-70
2021/01/30 11:41:00;;;;;;;15.60;8.80;;;2.40;99.90;;;;;;4998980;28;20412;-69
2021/01/30 11:43:27;;;;;;;15.60;8.83;;;2.30;99.90;;;;;;4982409;28;20050;-70
2021/01/30 11:45:54;;;;;;;13.97;8.20;;;2.20;99.90;;;;;;4987217;28;20566;-70
2021/01/30 11:48:22;;;;;;;15.83;8.57;;;2.20;99.90;;;;;;4983278;28;20050;-70
2021/01/30 11:50:51;;;;;;;15.10;8.40;;;2.30;99.90;;;;;;4983582;28;20133;-70
2021/01/30 11:53:20;;;;;;;19.13;8.80;;;2.20;99.90;;;;;;4969841;28;20528;-70
2021/01/30 11:55:47;;;;;;;16.33;8.10;;;2.20;99.90;;;;;;4982081;28;20352;-70
2021/01/30 11:58:15;;;;;;;15.77;8.50;;;2.40;99.90;;;;;;4978283;28;20473;-70
2021/01/30 12:00:42;;;;;;;14.90;7.43;;;2.40;99.90;;;;;;4975706;28;20050;-70
2021/01/30 12:03:18;;;;;;;15.10;7.23;;;2.30;99.90;;;;;;4984625;28;20054;-69
2021/01/30 12:05:45;;;;;;;14.50;7.78;;;2.30;99.90;;;;;;4978141;28;20050;-70
2021/01/30 12:08:11;;;;;;;15.67;7.50;;;2.30;99.90;;;;;;4981438;28;20061;-69
2021/01/30 12:10:39;;;;;;;11.63;6.77;;;2.40;99.90;;;;;;4978923;28;20385;-69
2021/01/30 12:13:05;;;;;;;12.33;6.60;;;2.40;99.90;;;;;;4982034;28;20054;-70
2021/01/30 12:15:35;;;;;;;15.23;7.17;;;2.30;99.90;;;;;;4970439;28;20058;-69
2021/01/30 12:18:06;;;;;;;14.17;6.87;;;2.40;99.90;;;;;;4970588;28;20392;-69
2021/01/30 12:20:33;;;;;;;11.53;6.30;;;2.30;99.90;;;;;;4983689;28;20046;-70
2021/01/30 12:22:59;;;;;;;13.50;7.37;;;2.10;99.90;;;;;;4972288;28;20051;-69
2021/01/30 12:25:26;;;;;;;14.63;7.37;;;2.20;99.90;;;;;;4969496;28;20074;-70
2021/01/30 12:27:55;;;;;;;12.47;6.63;;;2.30;99.90;;;;;;4987976;28;20516;-70
2021/01/30 12:30:24;;;;;;;13.37;7.33;;;2.30;99.90;;;;;;4986747;28;20072;-70
2021/01/30 12:32:51;;;;;;;13.67;7.13;;;2.30;99.90;;;;;;4973770;28;20047;-69
2021/01/30 12:35:21;;;;;;;14.30;7.97;;;2.40;99.90;;;;;;4985275;28;20513;-70
2021/01/30 12:37:47;;;;;;;13.40;6.57;;;2.40;99.90;;;;;;4962347;28;20057;-68
2021/01/30 12:40:15;;;;;;;13.43;7.27;;;2.50;99.90;;;;;;4965515;28;20062;-68
2021/01/30 12:42:41;;;;;;;13.13;6.83;;;2.40;99.90;;;;;;4968850;28;20046;-69
2021/01/30 12:45:10;;;;;;;15.90;7.33;;;2.40;99.90;;;;;;4965606;28;20046;-69
2021/01/30 12:47:37;;;;;;;14.87;6.80;;;2.30;99.90;;;;;;4958796;28;20556;-69
2021/01/30 12:50:04;;;;;;;15.43;7.57;;;2.10;99.90;;;;;;4956648;28;20085;-68
2021/01/30 12:52:30;;;;;;;15.30;7.30;;;2.30;99.90;;;;;;4958370;28;20586;-69
2021/01/30 12:54:57;;;;;;;13.73;7.20;;;2.40;99.90;;;;;;4958915;28;20051;-68
2021/01/30 12:57:24;;;;;;;15.97;8.57;;;2.30;99.90;;;;;;4956058;28;20046;-68
2021/01/30 12:59:50;;;;;;;18.40;8.17;;;2.40;99.90;;;;;;4956357;28;20054;-68
2021/01/30 13:02:18;;;;;;;16.30;7.70;;;2.20;99.90;;;;;;4955543;28;20047;-71
2021/01/30 13:04:44;;;;;;;14.40;7.53;;;2.10;99.90;;;;;;4958407;28;20512;-70
2021/01/30 13:07:11;;;;;;;14.60;7.70;;;2.00;99.90;;;;;;4959428;28;20046;-71
2021/01/30 13:09:37;;;;;;;15.27;7.33;;;2.10;99.90;;;;;;4954994;28;20078;-72
2021/01/30 13:12:05;;;;;;;14.37;7.40;;;2.10;99.90;;;;;;4953661;28;20057;-72
2021/01/30 13:14:31;;;;;;;13.23;7.67;;;2.10;99.90;;;;;;4950551;28;20161;-68
2021/01/30 13:16:58;;;;;;;14.63;6.93;;;2.20;99.90;;;;;;4958862;28;20050;-68
2021/01/30 13:19:25;;;;;;;11.83;6.60;;;2.20;99.90;;;;;;4951850;28;20050;-68
2021/01/30 13:21:52;;;;;;;13.93;7.80;;;2.10;99.90;;;;;;4948613;28;20106;-70